createdAt,value
2023-03-27T00:03:01.640Z,4.31
2023-03-27T00:07:01.491Z,4.68
2023-03-27T00:11:01.481Z,4.72
2023-03-27T00:15:01.440Z,4.67
2023-03-27T00:19:01.380Z,4.29
2023-03-27T00:23:01.344Z,3.75
2023-03-27T00:27:01.287Z,3.31
2023-03-27T00:31:01.324Z,3.25
2023-03-27T00:35:01.252Z,3.08
2023-03-27T00:39:01.215Z,3.12
2023-03-27T00:43:01.162Z,2.60
2023-03-27T00:47:01.127Z,3.08
2023-03-27T00:51:01.113Z,3.82
2023-03-27T00:55:01.076Z,4.47
2023-03-27T00:59:01.028Z,4.57
2023-03-27T01:03:01.308Z,4.76
2023-03-27T01:07:00.988Z,4.69
2023-03-27T01:11:00.910Z,4.73
2023-03-27T01:15:00.873Z,4.88
2023-03-27T01:19:00.847Z,4.21
2023-03-27T01:23:00.811Z,3.85
2023-03-27T01:27:00.782Z,3.25
2023-03-27T01:31:00.739Z,3.31
2023-03-27T01:35:01.310Z,3.45
2023-03-27T01:39:00.692Z,3.48
2023-03-27T01:43:00.644Z,3.53
2023-03-27T01:47:00.627Z,3.30
2023-03-27T01:51:00.533Z,3.33
2023-03-27T01:55:00.523Z,3.23
2023-03-27T01:59:00.480Z,3.08
2023-03-27T02:03:00.545Z,3.26
2023-03-27T02:07:00.422Z,3.26
2023-03-27T02:11:00.360Z,3.41
2023-03-27T02:15:24.169Z,3.43
2023-03-27T02:19:01.349Z,3.46
2023-03-27T02:23:00.303Z,3.33
2023-03-27T02:27:00.246Z,3.37
2023-03-27T02:31:30.581Z,3.48
2023-03-27T02:35:01.158Z,3.63
2023-03-27T02:39:00.153Z,3.20
2023-03-27T02:43:00.109Z,3.00
2023-03-27T02:47:00.108Z,3.09
2023-03-27T02:51:00.264Z,3.16
2023-03-27T02:55:00.344Z,2.86
2023-03-27T02:59:00.516Z,2.85
2023-03-27T03:03:00.715Z,2.70
2023-03-27T03:07:00.820Z,2.41
2023-03-27T03:11:01.008Z,2.47
2023-03-27T03:15:01.158Z,2.38
2023-03-27T03:19:01.257Z,2.20
2023-03-27T03:23:01.417Z,1.90
2023-03-27T03:27:01.524Z,1.67
2023-03-27T03:31:01.693Z,1.51
2023-03-27T03:35:01.932Z,1.46
2023-03-27T03:39:01.974Z,1.35
2023-03-27T03:43:02.107Z,1.08
2023-03-27T03:47:02.299Z,0.94
2023-03-27T03:51:02.435Z,0.80
2023-03-27T03:55:02.614Z,0.66
2023-03-27T03:59:02.852Z,0.60
2023-03-27T04:03:03.083Z,0.51
2023-03-27T04:07:03.612Z,0.53
2023-03-27T04:11:03.382Z,0.62
2023-03-27T04:15:03.510Z,0.57
2023-03-27T04:19:03.684Z,0.58
2023-03-27T04:23:03.853Z,0.74
2023-03-27T04:27:04.043Z,0.67
2023-03-27T04:31:04.222Z,0.50
2023-03-27T04:35:04.452Z,0.53
2023-03-27T04:39:04.439Z,0.52
2023-03-27T04:43:04.405Z,0.55
2023-03-27T04:47:05.453Z,0.50
2023-03-27T04:51:04.515Z,0.51
2023-03-27T04:55:04.481Z,0.50
2023-03-27T04:59:04.435Z,0.60
2023-03-27T05:03:04.508Z,0.70
2023-03-27T05:07:04.333Z,0.78
2023-03-27T05:11:04.346Z,1.05
2023-03-27T05:15:04.298Z,1.27
2023-03-27T05:19:04.257Z,1.29
2023-03-27T05:23:04.250Z,1.41
2023-03-27T05:27:04.215Z,1.64
2023-03-27T05:31:04.274Z,1.62
2023-03-27T05:35:04.078Z,1.42
2023-03-27T05:39:04.194Z,2.31
2023-03-27T05:43:04.182Z,6.24
2023-03-27T05:47:04.169Z,12.28
2023-03-27T05:51:04.317Z,31.97
2023-03-27T05:55:04.662Z,74.01
2023-03-27T05:59:04.672Z,110.51
2023-03-27T06:03:04.790Z,153.52
2023-03-27T06:07:04.611Z,202.10
2023-03-27T06:11:04.670Z,239.41
2023-03-27T06:15:04.510Z,287.21
2023-03-27T06:19:04.516Z,324.00
2023-03-27T06:23:04.471Z,355.22
2023-03-27T06:27:04.436Z,379.80
2023-03-27T06:31:04.708Z,406.95
2023-03-27T06:35:06.199Z,454.76
2023-03-27T06:39:04.338Z,462.32
2023-03-27T06:43:04.353Z,476.20
2023-03-27T06:47:04.879Z,510.29
2023-03-27T06:51:04.682Z,556.96
2023-03-27T06:55:04.409Z,581.68
2023-03-27T06:59:04.406Z,574.97
2023-03-27T07:03:04.857Z,571.29
2023-03-27T07:07:04.275Z,550.66
2023-03-27T07:15:04.235Z,505.22
2023-03-27T07:19:04.188Z,490.62
2023-03-27T07:23:04.680Z,480.04
2023-03-27T07:27:04.115Z,455.19
2023-03-27T07:31:10.709Z,429.85
2023-03-27T07:35:05.054Z,427.05
2023-03-27T07:39:04.199Z,404.99
2023-03-27T07:43:04.083Z,384.30
2023-03-27T07:47:04.277Z,404.40
2023-03-27T07:51:13.523Z,457.31
2023-03-27T07:55:05.012Z,484.14
2023-03-27T07:59:04.211Z,605.03
2023-03-27T08:03:04.108Z,599.50
2023-03-27T08:07:03.869Z,681.31
2023-03-27T08:11:03.900Z,725.51
2023-03-27T08:15:04.198Z,724.65
2023-03-27T08:19:04.117Z,754.26
2023-03-27T08:23:04.221Z,762.35
2023-03-27T08:27:04.027Z,829.89
2023-03-27T08:31:04.245Z,849.55
2023-03-27T08:35:03.973Z,798.18
2023-03-27T08:39:03.937Z,720.34
2023-03-27T08:43:04.198Z,718.86
2023-03-27T08:47:04.213Z,690.94
2023-03-27T08:51:04.220Z,630.65
2023-03-27T08:55:03.815Z,617.18
2023-03-27T08:59:04.224Z,574.65
2023-03-27T09:03:03.870Z,496.01
2023-03-27T09:07:03.686Z,399.99
2023-03-27T09:11:04.241Z,355.02
2023-03-27T09:15:03.811Z,321.91
2023-03-27T09:19:03.821Z,276.61
2023-03-27T09:23:04.202Z,272.06
2023-03-27T09:27:07.413Z,244.21
2023-03-27T09:31:03.921Z,229.82
2023-03-27T09:35:04.246Z,192.83
2023-03-27T09:39:04.212Z,182.82
2023-03-27T09:43:04.243Z,172.83
2023-03-27T09:47:03.808Z,230.44
2023-03-27T09:51:03.745Z,213.73
2023-03-27T09:55:03.765Z,152.92
2023-03-27T09:59:03.670Z,145.76
2023-03-27T10:03:03.827Z,156.71
2023-03-27T10:07:03.751Z,161.35
2023-03-27T10:11:03.573Z,171.63
2023-03-27T10:15:03.756Z,167.33
2023-03-27T10:19:03.769Z,174.91
2023-03-27T10:23:03.800Z,186.40
2023-03-27T10:27:03.807Z,257.75
2023-03-27T10:31:04.281Z,234.60
2023-03-27T10:35:03.789Z,238.86
2023-03-27T10:39:03.813Z,209.47
2023-03-27T10:43:03.752Z,153.17
2023-03-27T10:47:03.826Z,175.77
2023-03-27T10:51:03.689Z,188.61
2023-03-27T10:55:03.603Z,201.26
2023-03-27T10:59:03.570Z,209.83
2023-03-27T11:03:03.793Z,225.42
2023-03-27T11:07:03.496Z,228.18
2023-03-27T11:11:03.448Z,245.41
2023-03-27T11:15:03.424Z,281.49
2023-03-27T11:19:03.757Z,301.58
2023-03-27T11:23:03.362Z,293.50
2023-03-27T11:27:03.437Z,294.20
2023-03-27T11:31:12.642Z,279.49
2023-03-27T11:35:04.772Z,261.64
2023-03-27T11:39:03.782Z,255.99
2023-03-27T11:43:03.535Z,235.34
2023-03-27T11:47:03.787Z,220.89
2023-03-27T11:51:03.460Z,183.12
2023-03-27T11:55:03.785Z,177.21
2023-03-27T11:59:03.355Z,156.12
2023-03-27T12:03:03.887Z,143.57
2023-03-27T12:07:05.185Z,126.27
2023-03-27T12:11:03.511Z,118.08
2023-03-27T12:15:03.624Z,100.56
2023-03-27T12:19:10.758Z,98.45
2023-03-27T12:23:04.783Z,86.98
2023-03-27T12:27:04.153Z,79.85
2023-03-27T12:31:03.718Z,72.62
2023-03-27T12:35:03.691Z,66.84
2023-03-27T12:39:03.632Z,60.84
2023-03-27T12:43:03.621Z,58.36
2023-03-27T12:47:03.568Z,52.19
2023-03-27T12:51:03.627Z,48.60
2023-03-27T12:55:03.515Z,45.58
2023-03-27T12:59:05.591Z,43.99
2023-03-27T13:03:03.560Z,41.44
2023-03-27T13:07:03.431Z,38.82
2023-03-27T13:11:03.359Z,35.66
2023-03-27T13:15:03.355Z,34.70
2023-03-27T13:19:03.309Z,32.33
2023-03-27T13:23:03.277Z,30.07
2023-03-27T13:27:03.246Z,30.89
2023-03-27T13:31:03.249Z,22.85
2023-03-27T13:35:03.168Z,22.14
2023-03-27T13:39:03.161Z,22.20
2023-03-27T13:43:03.114Z,21.78
2023-03-27T13:47:03.131Z,21.78
2023-03-27T13:51:03.011Z,15.98
2023-03-27T13:55:02.985Z,15.82
2023-03-27T13:59:02.955Z,15.92
2023-03-27T14:03:03.387Z,15.40
2023-03-27T14:07:02.888Z,14.00
2023-03-27T14:11:02.834Z,13.42
2023-03-27T14:15:02.851Z,13.84
2023-03-27T14:19:02.792Z,11.94
2023-03-27T14:23:02.726Z,11.17
2023-03-27T14:27:02.726Z,11.36
2023-03-27T14:31:02.674Z,9.67
2023-03-27T14:35:02.735Z,8.92
2023-03-27T14:39:02.611Z,8.89
2023-03-27T14:43:02.575Z,9.35
2023-03-27T14:47:02.553Z,9.07
2023-03-27T14:51:02.509Z,9.23
2023-03-27T14:55:02.499Z,9.88
2023-03-27T14:59:02.468Z,10.20
2023-03-27T15:03:02.471Z,9.87
2023-03-27T15:07:02.400Z,9.88
2023-03-27T15:11:02.385Z,9.70
2023-03-27T15:15:02.296Z,9.16
2023-03-27T15:19:02.277Z,8.98
2023-03-27T15:23:02.216Z,9.10
2023-03-27T15:27:02.198Z,8.82
2023-03-27T15:31:02.186Z,8.76
2023-03-27T15:35:02.122Z,8.75
2023-03-27T15:39:02.090Z,8.14
2023-03-27T15:43:02.204Z,7.54
2023-03-27T15:47:02.365Z,7.44
2023-03-27T15:51:02.147Z,6.75
2023-03-27T15:55:02.084Z,6.82
2023-03-27T15:59:02.058Z,7.15
2023-03-27T16:03:02.431Z,7.25
2023-03-27T16:07:02.038Z,7.32
2023-03-27T16:11:02.054Z,7.07
2023-03-27T16:15:02.049Z,7.30
2023-03-27T16:19:01.921Z,6.16
2023-03-27T16:23:01.906Z,6.17
2023-03-27T16:27:01.849Z,6.79
2023-03-27T16:31:01.797Z,6.90
2023-03-27T16:35:01.780Z,7.05
2023-03-27T16:39:01.756Z,6.93
2023-03-27T16:43:01.679Z,6.80
2023-03-27T16:47:01.659Z,6.73
2023-03-27T16:51:01.772Z,6.23
2023-03-27T16:55:01.934Z,5.50
2023-03-27T16:59:02.038Z,5.52
2023-03-27T17:03:02.276Z,5.38
2023-03-27T17:07:02.314Z,4.82
2023-03-27T17:11:02.475Z,4.61
2023-03-27T17:15:02.583Z,4.40
2023-03-27T17:19:02.765Z,4.50
2023-03-27T17:23:02.915Z,4.38
2023-03-27T17:27:03.086Z,4.75
2023-03-27T17:31:05.179Z,4.77
2023-03-27T17:35:03.392Z,4.53
2023-03-27T17:39:03.503Z,4.45
2023-03-27T17:43:03.674Z,4.42
2023-03-27T17:47:03.825Z,4.55
2023-03-27T17:51:09.482Z,4.46
2023-03-27T17:55:04.953Z,4.39
2023-03-27T17:59:03.909Z,4.37
2023-03-27T18:03:04.083Z,4.22
2023-03-27T18:07:03.916Z,4.17
2023-03-27T18:11:04.086Z,3.86
2023-03-27T18:15:04.212Z,3.82
2023-03-27T18:19:04.362Z,3.82
2023-03-27T18:23:04.545Z,3.84
2023-03-27T18:27:04.693Z,3.83
2023-03-27T18:31:04.831Z,3.70
2023-03-27T18:35:04.997Z,3.63
2023-03-27T18:39:05.152Z,3.51
2023-03-27T18:43:05.323Z,3.42
2023-03-27T18:47:05.476Z,3.40
2023-03-27T18:51:05.667Z,3.38
2023-03-27T18:55:05.796Z,3.46
2023-03-27T18:59:05.992Z,3.46
2023-03-27T19:03:06.302Z,3.35
2023-03-27T19:07:08.635Z,3.18
2023-03-27T19:11:06.535Z,3.19
2023-03-27T19:15:19.245Z,3.15
2023-03-27T19:19:07.688Z,3.04
2023-03-27T19:23:06.622Z,3.12
2023-03-27T19:27:06.797Z,2.92
2023-03-27T19:31:07.803Z,2.81
2023-03-27T19:35:06.728Z,2.89
2023-03-27T19:39:06.866Z,2.57
2023-03-27T19:43:07.080Z,2.77
2023-03-27T19:47:07.478Z,2.46
2023-03-27T19:51:07.536Z,2.46
2023-03-27T19:55:07.477Z,2.67
2023-03-27T19:59:08.572Z,2.56
2023-03-27T20:03:07.603Z,2.65
2023-03-27T20:07:07.490Z,2.59
2023-03-27T20:11:07.476Z,2.54
2023-03-27T20:15:12.160Z,2.59
2023-03-27T20:19:08.367Z,2.60
2023-03-27T20:23:07.355Z,2.61
2023-03-27T20:27:07.527Z,2.61
2023-03-27T20:31:07.816Z,2.55
2023-03-27T20:35:20.556Z,2.19
2023-03-27T20:39:08.684Z,2.22
2023-03-27T20:43:07.656Z,2.40
2023-03-27T20:47:07.673Z,2.30
2023-03-27T20:51:07.547Z,2.19
2023-03-27T20:55:07.553Z,2.03
2023-03-27T20:59:07.507Z,2.00
2023-03-27T21:03:07.562Z,2.14
2023-03-27T21:07:07.428Z,2.01
2023-03-27T21:11:07.370Z,2.09
2023-03-27T21:15:07.466Z,2.10
2023-03-27T21:19:07.471Z,2.14
2023-03-27T21:23:07.396Z,2.10
2023-03-27T21:27:07.354Z,2.10
2023-03-27T21:31:07.353Z,2.09
2023-03-27T21:35:07.289Z,2.11
2023-03-27T21:39:07.231Z,2.09
2023-03-27T21:43:07.209Z,2.09
2023-03-27T21:47:07.154Z,2.05
2023-03-27T21:51:07.147Z,2.06
2023-03-27T21:55:07.102Z,2.07
2023-03-27T21:59:07.061Z,2.00
2023-03-27T22:03:07.237Z,1.96
2023-03-27T22:07:07.207Z,1.98
2023-03-27T22:11:07.182Z,1.92
2023-03-27T22:15:07.099Z,1.92
2023-03-27T22:19:07.069Z,1.92
2023-03-27T22:23:07.045Z,1.88
2023-03-27T22:27:07.003Z,1.89
2023-03-27T22:31:06.989Z,1.89
2023-03-27T22:35:06.946Z,1.81
2023-03-27T22:39:06.914Z,1.77
2023-03-27T22:43:07.077Z,1.73
2023-03-27T22:47:07.066Z,1.68
2023-03-27T22:51:08.587Z,1.70
2023-03-27T22:55:06.997Z,1.57
2023-03-27T22:59:06.968Z,1.48
2023-03-27T23:03:06.993Z,1.47
2023-03-27T23:07:07.127Z,1.47
2023-03-27T23:11:07.402Z,1.49
2023-03-27T23:15:07.326Z,1.39
2023-03-27T23:19:07.280Z,1.41
2023-03-27T23:23:07.259Z,1.45
2023-03-27T23:27:07.221Z,1.42
2023-03-27T23:31:07.188Z,1.36
2023-03-27T23:35:07.130Z,1.46
2023-03-27T23:39:07.135Z,1.39
2023-03-27T23:43:07.113Z,1.38
2023-03-27T23:47:07.026Z,1.43
2023-03-27T23:51:06.978Z,1.40
2023-03-27T23:55:07.072Z,1.38
2023-03-27T23:59:06.951Z,1.36
